createdAt,value
2022-10-14T00:01:44.624Z,77398.19
2022-10-14T00:04:11.860Z,77398.19
2022-10-14T00:06:38.923Z,77394.09
2022-10-14T00:09:07.607Z,77394.09
2022-10-14T00:11:37.375Z,77385.84
2022-10-14T00:14:09.441Z,77392.03
2022-10-14T00:16:37.509Z,77383.81
2022-10-14T00:19:05.109Z,77377.63
2022-10-14T00:21:32.272Z,77381.75
2022-10-14T00:23:59.353Z,77381.75
2022-10-14T00:26:27.345Z,77381.75
2022-10-14T00:28:55.041Z,77373.53
2022-10-14T00:31:22.312Z,77369.41
2022-10-14T00:33:49.616Z,77361.19
2022-10-14T00:36:18.521Z,77363.25
2022-10-14T00:38:45.771Z,77359.13
2022-10-14T00:41:13.692Z,77352.97
2022-10-14T00:43:59.588Z,77352.97
2022-10-14T00:46:27.400Z,77344.72
2022-10-14T00:48:54.435Z,77340.63
2022-10-14T00:51:21.636Z,77332.41
2022-10-14T00:53:48.678Z,77336.50
2022-10-14T00:56:19.693Z,77336.50
2022-10-14T00:58:47.054Z,77328.28
2022-10-14T01:01:14.142Z,77320.06
2022-10-14T01:03:41.574Z,77320.06
2022-10-14T01:06:11.380Z,77303.63
2022-10-14T01:08:49.276Z,77297.44
2022-10-14T01:11:29.669Z,77287.16
2022-10-14T01:14:01.482Z,77303.63
2022-10-14T01:16:34.441Z,77278.94
2022-10-14T01:19:13.957Z,77264.53
2022-10-14T01:21:43.063Z,77270.72
2022-10-14T01:24:29.009Z,77248.09
2022-10-14T01:26:56.117Z,77241.94
2022-10-14T01:29:42.034Z,77241.94
2022-10-14T01:32:16.244Z,77262.50
2022-10-14T01:34:45.137Z,77229.59
2022-10-14T01:37:13.600Z,77217.25
2022-10-14T01:39:42.642Z,77221.38
2022-10-14T01:42:20.298Z,77204.91
2022-10-14T01:44:51.886Z,77202.88
2022-10-14T01:47:20.678Z,77196.69
2022-10-14T01:49:50.069Z,77198.75
2022-10-14T01:52:20.339Z,77200.81
2022-10-14T01:54:48.017Z,77221.38
2022-10-14T01:57:17.474Z,77246.03
2022-10-14T01:59:44.774Z,77209.03
2022-10-14T02:02:12.271Z,77204.91
2022-10-14T02:04:40.282Z,77200.81
2022-10-14T02:07:12.175Z,77204.91
2022-10-14T02:09:48.833Z,77192.59
2022-10-14T02:12:22.774Z,77196.69
2022-10-14T02:14:57.013Z,77180.25
2022-10-14T02:17:24.520Z,77206.97
2022-10-14T02:19:56.359Z,77192.59
2022-10-14T02:22:43.707Z,77194.63
2022-10-14T02:25:21.809Z,77192.59
2022-10-14T02:27:48.924Z,77192.59
2022-10-14T02:30:16.337Z,77182.31
2022-10-14T02:32:43.375Z,77192.59
2022-10-14T02:35:12.795Z,77198.75
2022-10-14T02:37:40.627Z,77188.47
2022-10-14T02:40:10.557Z,77178.19
2022-10-14T02:42:38.108Z,77172.03
2022-10-14T02:45:06.196Z,77172.03
2022-10-14T02:47:33.517Z,77192.59
2022-10-14T02:50:00.794Z,77180.25
2022-10-14T02:52:27.841Z,77167.91
2022-10-14T02:54:55.338Z,77231.66
2022-10-14T02:57:22.393Z,77221.38
2022-10-14T02:59:49.578Z,77237.81
2022-10-14T03:02:16.691Z,77221.38
2022-10-14T03:04:43.786Z,77200.81
2022-10-14T03:07:10.823Z,77225.47
2022-10-14T03:09:39.292Z,77221.38
2022-10-14T03:12:06.988Z,77213.16
2022-10-14T03:14:35.295Z,77217.25
2022-10-14T03:17:15.969Z,77209.03
2022-10-14T03:19:45.024Z,77196.69
2022-10-14T03:22:12.134Z,77192.59
2022-10-14T03:24:39.207Z,77167.91
2022-10-14T03:27:06.559Z,77182.31
2022-10-14T03:29:33.600Z,77174.09
2022-10-14T03:32:00.617Z,77163.81
2022-10-14T03:34:28.360Z,77157.63
2022-10-14T03:36:55.500Z,77165.84
2022-10-14T03:39:25.448Z,77159.69
2022-10-14T03:41:52.480Z,77163.81
2022-10-14T03:44:19.688Z,77167.91
2022-10-14T03:46:46.963Z,77163.81
2022-10-14T03:49:14.337Z,77188.47
2022-10-14T03:51:41.487Z,77176.13
2022-10-14T03:54:08.489Z,77163.81
2022-10-14T03:56:35.507Z,77174.09
2022-10-14T03:59:02.839Z,77163.81
2022-10-14T04:01:30.115Z,77167.91
2022-10-14T04:03:57.413Z,77167.91
2022-10-14T04:06:25.368Z,77172.03
2022-10-14T04:08:52.516Z,77163.81
2022-10-14T04:11:20.224Z,77172.03
2022-10-14T04:13:47.506Z,77161.75
2022-10-14T04:16:14.535Z,77149.41
2022-10-14T04:18:41.566Z,77147.34
2022-10-14T04:21:10.697Z,77159.69
2022-10-14T04:23:39.708Z,77159.69
2022-10-14T04:26:07.252Z,77135.03
2022-10-14T04:28:34.455Z,77137.06
2022-10-14T04:31:02.301Z,77126.78
2022-10-14T04:33:29.656Z,77159.69
2022-10-14T04:35:57.289Z,77176.13
2022-10-14T04:38:24.366Z,77157.63
2022-10-14T04:40:51.457Z,77184.34
2022-10-14T04:43:18.765Z,77176.13
2022-10-14T04:45:45.967Z,77143.25
2022-10-14T04:48:12.995Z,77135.03
2022-10-14T04:50:41.071Z,77126.78
2022-10-14T04:53:13.082Z,77130.91
2022-10-14T04:55:40.699Z,77112.41
2022-10-14T04:58:07.797Z,77110.34
2022-10-14T05:00:34.956Z,77135.03
2022-10-14T05:03:01.996Z,77118.56
2022-10-14T05:05:29.136Z,77106.22
2022-10-14T05:07:59.735Z,77106.22
2022-10-14T05:10:26.817Z,77110.34
2022-10-14T05:12:57.268Z,77098.00
2022-10-14T05:15:25.355Z,77083.63
2022-10-14T05:17:54.540Z,77089.78
2022-10-14T05:20:21.643Z,77077.44
2022-10-14T05:22:48.657Z,77073.34
2022-10-14T05:25:16.309Z,77063.06
2022-10-14T05:27:43.772Z,77061.00
2022-10-14T05:30:11.341Z,77065.13
2022-10-14T05:32:39.224Z,77052.78
2022-10-14T05:35:06.375Z,77046.59
2022-10-14T05:37:34.049Z,77050.72
2022-10-14T05:40:01.427Z,77044.56
2022-10-14T05:42:28.626Z,77048.66
2022-10-14T05:44:55.888Z,77040.44
2022-10-14T05:47:22.987Z,77026.03
2022-10-14T05:49:50.054Z,77015.78
2022-10-14T05:52:17.135Z,77009.59
2022-10-14T05:54:44.457Z,77007.53
2022-10-14T05:57:11.589Z,77007.53
2022-10-14T05:59:38.737Z,77001.38
2022-10-14T06:02:05.905Z,76987.00
2022-10-14T06:04:32.918Z,76991.09
2022-10-14T06:07:00.173Z,76991.09
2022-10-14T06:09:27.246Z,76984.94
2022-10-14T06:11:54.907Z,76974.66
2022-10-14T06:14:22.110Z,76982.88
2022-10-14T06:16:53.596Z,76966.44
2022-10-14T06:19:20.873Z,76949.97
2022-10-14T06:21:49.119Z,76937.66
2022-10-14T06:24:16.215Z,76921.19
2022-10-14T06:26:43.246Z,76908.88
2022-10-14T06:29:10.758Z,76900.63
2022-10-14T06:31:38.637Z,76915.03
2022-10-14T06:34:06.115Z,76956.16
2022-10-14T06:36:34.076Z,76945.88
2022-10-14T06:39:01.209Z,76915.03
2022-10-14T06:41:28.349Z,76892.41
2022-10-14T06:43:55.454Z,76875.97
2022-10-14T06:46:22.602Z,76892.41
2022-10-14T06:48:50.664Z,76892.41
2022-10-14T06:51:18.158Z,76855.41
2022-10-14T06:53:45.172Z,76838.97
2022-10-14T06:56:12.537Z,76832.78
2022-10-14T06:58:39.661Z,76826.63
2022-10-14T07:01:07.147Z,76818.41
2022-10-14T07:03:36.385Z,76830.75
2022-10-14T07:06:03.922Z,76830.75
2022-10-14T07:08:31.477Z,76832.78
2022-10-14T07:11:00.102Z,76859.53
2022-10-14T07:13:27.508Z,76828.69
2022-10-14T07:15:54.845Z,76797.84
2022-10-14T07:18:22.360Z,76785.50
2022-10-14T07:20:50.969Z,76777.28
2022-10-14T07:23:18.345Z,76777.28
2022-10-14T07:25:45.458Z,76769.06
2022-10-14T07:28:12.924Z,76767.00
2022-10-14T07:30:40.148Z,76760.84
2022-10-14T07:33:07.353Z,76748.50
2022-10-14T07:35:35.550Z,76764.97
2022-10-14T07:38:02.613Z,76744.41
2022-10-14T07:40:30.071Z,76717.66
2022-10-14T07:42:57.601Z,76732.06
2022-10-14T07:45:24.737Z,76719.72
2022-10-14T07:47:51.930Z,76715.63
2022-10-14T07:50:19.465Z,76736.16
2022-10-14T07:52:47.297Z,76705.34
2022-10-14T07:55:14.442Z,76715.63
2022-10-14T07:57:41.519Z,76699.16
2022-10-14T08:00:09.900Z,76682.72
2022-10-14T08:02:37.089Z,76695.06
2022-10-14T08:05:25.547Z,76674.50
2022-10-14T08:07:51.367Z,76670.38
2022-10-14T08:10:18.533Z,76707.41
2022-10-14T08:12:47.109Z,76670.38
2022-10-14T08:15:14.154Z,76666.28
2022-10-14T08:17:42.600Z,76637.50
2022-10-14T08:20:09.896Z,76633.38
2022-10-14T08:22:37.747Z,76608.72
2022-10-14T08:25:05.003Z,76604.59
2022-10-14T08:27:32.510Z,76598.44
2022-10-14T08:29:59.902Z,76600.50
2022-10-14T08:32:26.913Z,76571.72
2022-10-14T08:34:55.948Z,76608.72
2022-10-14T08:37:23.034Z,76592.28
2022-10-14T08:39:50.308Z,76598.44
2022-10-14T08:42:35.683Z,76561.44
2022-10-14T08:45:15.443Z,76584.06
2022-10-14T08:47:43.195Z,76559.38
2022-10-14T08:50:16.967Z,76530.59
2022-10-14T08:52:48.588Z,76538.81
2022-10-14T08:55:36.661Z,76477.16
2022-10-14T08:58:23.859Z,76440.16
2022-10-14T09:00:51.583Z,76434.00
2022-10-14T09:03:22.415Z,76477.16
2022-10-14T09:05:56.204Z,76440.16
2022-10-14T09:08:28.036Z,76423.72
2022-10-14T09:10:55.076Z,76403.16
2022-10-14T09:13:24.915Z,76325.03
2022-10-14T09:16:04.562Z,76292.16
2022-10-14T09:19:01.264Z,76251.03
2022-10-14T09:21:52.970Z,76257.22
2022-10-14T09:24:20.621Z,76251.03
2022-10-14T09:26:48.529Z,76207.88
2022-10-14T09:29:37.432Z,76115.38
2022-10-14T09:32:05.941Z,76172.94
2022-10-14T09:34:37.048Z,76082.50
2022-10-14T09:37:10.344Z,76027.00
2022-10-14T09:39:37.818Z,76016.72
2022-10-14T09:42:04.968Z,75942.75
2022-10-14T09:44:32.094Z,75907.81
2022-10-14T09:46:59.725Z,75839.97
2022-10-14T09:49:43.190Z,75755.72
2022-10-14T09:52:19.963Z,75687.91
2022-10-14T09:54:52.027Z,75741.31
2022-10-14T09:57:19.261Z,75741.31
2022-10-14T10:00:06.907Z,75626.25
2022-10-14T10:02:42.201Z,75461.84
2022-10-14T10:05:32.736Z,75297.44
2022-10-14T10:08:01.633Z,75338.53
2022-10-14T10:10:31.779Z,75260.44
2022-10-14T10:12:58.866Z,75233.75
2022-10-14T10:15:26.765Z,75379.63
2022-10-14T10:17:54.354Z,75328.25
2022-10-14T10:20:28.680Z,75231.69
2022-10-14T10:22:56.718Z,75268.66
2022-10-14T10:25:28.023Z,75363.19
2022-10-14T10:27:57.300Z,75420.72
2022-10-14T10:30:25.507Z,75357.03
2022-10-14T10:33:10.951Z,75457.72
2022-10-14T10:35:41.018Z,75439.22
2022-10-14T10:38:08.440Z,75470.06
2022-10-14T10:40:41.472Z,75354.97
2022-10-14T10:43:16.620Z,75170.03
2022-10-14T10:45:53.676Z,75057.03
2022-10-14T10:48:26.619Z,75352.91
2022-10-14T10:50:58.360Z,75334.44
2022-10-14T10:53:25.482Z,75293.34
2022-10-14T10:56:02.044Z,75301.56
2022-10-14T10:58:44.601Z,75137.16
2022-10-14T11:01:31.508Z,75063.19
2022-10-14T11:04:10.532Z,75071.41
2022-10-14T11:06:59.156Z,75186.47
2022-10-14T11:09:54.026Z,75254.28
2022-10-14T11:12:23.611Z,75342.66
2022-10-14T11:14:57.035Z,75256.34
2022-10-14T11:17:27.040Z,75264.56
2022-10-14T11:19:59.448Z,75219.34
2022-10-14T11:22:38.661Z,75289.22
2022-10-14T11:25:09.226Z,75437.19
2022-10-14T11:27:38.109Z,75266.63
2022-10-14T11:30:18.642Z,75256.34
2022-10-14T11:32:47.061Z,75318.00
2022-10-14T11:35:37.611Z,75260.44
2022-10-14T11:38:11.072Z,75449.50
2022-10-14T11:40:41.673Z,75293.34
2022-10-14T11:43:27.818Z,75153.59
2022-10-14T11:45:58.807Z,75241.97
2022-10-14T11:48:32.028Z,75330.31
2022-10-14T11:51:05.657Z,75465.94
2022-10-14T11:53:51.643Z,75609.81
2022-10-14T11:56:25.369Z,75802.97
2022-10-14T11:58:52.428Z,75831.75
2022-10-14T12:01:19.885Z,75831.75
2022-10-14T12:04:06.698Z,75922.19
2022-10-14T12:06:38.626Z,75992.06
2022-10-14T12:09:18.137Z,76041.41
2022-10-14T12:11:59.264Z,76094.84
2022-10-14T12:14:36.241Z,76148.28
2022-10-14T12:17:04.104Z,76175.00
2022-10-14T12:19:31.849Z,76179.09
2022-10-14T12:22:15.431Z,76205.81
2022-10-14T12:24:45.572Z,76218.16
2022-10-14T12:27:12.961Z,76238.72
2022-10-14T12:29:41.385Z,76234.59
2022-10-14T12:32:20.476Z,76214.06
2022-10-14T12:34:48.602Z,76189.38
2022-10-14T12:37:28.808Z,76144.16
2022-10-14T12:40:07.718Z,76053.72
2022-10-14T12:42:44.213Z,75792.72
2022-10-14T12:45:15.427Z,75550.19
2022-10-14T12:47:44.087Z,75416.63
2022-10-14T12:50:14.228Z,75256.34
2022-10-14T12:52:41.690Z,75207.03
2022-10-14T12:55:09.665Z,75192.63
2022-10-14T12:57:40.069Z,75149.50
2022-10-14T13:00:21.804Z,75190.59
2022-10-14T13:02:53.345Z,75256.34
2022-10-14T13:05:32.575Z,75301.56
2022-10-14T13:08:14.719Z,75437.19
2022-10-14T13:10:47.333Z,75313.88
2022-10-14T13:13:33.682Z,75326.22
2022-10-14T13:16:01.149Z,75326.22
2022-10-14T13:18:32.681Z,75406.34
2022-10-14T13:20:59.897Z,75482.38
2022-10-14T13:23:35.691Z,75515.25
2022-10-14T13:26:18.925Z,75511.16
2022-10-14T13:28:56.693Z,75552.25
2022-10-14T13:31:47.383Z,75531.72
2022-10-14T13:34:14.499Z,75509.09
2022-10-14T13:36:55.718Z,75552.25
2022-10-14T13:39:22.816Z,75597.47
2022-10-14T13:41:50.351Z,75698.16
2022-10-14T13:44:17.985Z,75794.75
2022-10-14T13:46:45.586Z,75889.31
2022-10-14T13:49:13.737Z,76016.72
2022-10-14T13:51:56.017Z,76074.28
2022-10-14T13:54:24.131Z,76135.94
2022-10-14T13:57:12.610Z,76181.16
2022-10-14T14:00:16.154Z,76207.88
2022-10-14T14:02:33.525Z,76214.06
2022-10-14T14:05:01.485Z,76172.94
2022-10-14T14:10:22.477Z,75985.91
2022-10-14T14:12:49.628Z,75955.06
2022-10-14T14:15:25.580Z,75967.41
2022-10-14T14:17:53.655Z,76037.28
2022-10-14T14:20:21.904Z,76074.28
2022-10-14T14:22:52.230Z,76123.63
2022-10-14T14:25:35.770Z,76148.28
2022-10-14T14:28:07.021Z,76193.50
2022-10-14T14:30:37.574Z,76234.59
2022-10-14T14:33:06.688Z,76255.16
2022-10-14T14:35:34.317Z,76292.16
2022-10-14T14:38:01.656Z,76314.78
2022-10-14T14:40:31.354Z,76335.31
2022-10-14T14:43:00.121Z,76382.59
2022-10-14T14:45:29.158Z,76386.72
2022-10-14T14:47:57.124Z,76411.38
2022-10-14T14:50:31.198Z,76423.72
2022-10-14T14:53:01.053Z,76442.22
2022-10-14T14:55:44.187Z,76456.59
2022-10-14T14:58:20.224Z,76475.09
2022-10-14T15:00:47.387Z,76477.16
2022-10-14T15:03:14.429Z,76497.72
2022-10-14T15:05:48.462Z,76497.72
2022-10-14T15:08:22.443Z,76505.94
2022-10-14T15:10:50.328Z,76518.28
2022-10-14T15:13:28.355Z,76528.53
2022-10-14T15:15:56.374Z,76526.50
2022-10-14T15:18:28.096Z,76547.06
2022-10-14T15:21:13.998Z,76538.81
2022-10-14T15:23:46.128Z,76567.59
2022-10-14T15:26:22.422Z,76577.88
2022-10-14T15:29:05.550Z,76596.38
2022-10-14T15:31:33.249Z,76584.06
2022-10-14T15:34:00.415Z,76584.06
2022-10-14T15:36:28.295Z,76588.16
2022-10-14T15:38:56.559Z,76586.09
2022-10-14T15:41:24.167Z,76592.28
2022-10-14T15:43:51.433Z,76590.22
2022-10-14T15:46:37.435Z,76600.50
2022-10-14T15:49:05.659Z,76600.50
2022-10-14T15:51:33.615Z,76600.50
2022-10-14T15:54:00.855Z,76619.00
2022-10-14T15:56:28.021Z,76612.84
2022-10-14T15:58:55.456Z,76625.16
2022-10-14T16:01:23.560Z,76633.38
2022-10-14T16:03:52.322Z,76633.38
2022-10-14T16:06:22.560Z,76633.38
2022-10-14T16:08:52.869Z,76682.72
2022-10-14T16:11:25.939Z,76674.50
2022-10-14T16:13:53.769Z,76658.06
2022-10-14T16:16:22.263Z,76653.94
2022-10-14T16:18:49.477Z,76645.72
2022-10-14T16:21:16.733Z,76649.84
2022-10-14T16:23:44.404Z,76647.78
2022-10-14T16:26:14.386Z,76649.84
2022-10-14T16:28:41.895Z,76658.06
2022-10-14T16:31:10.463Z,76660.13
2022-10-14T16:33:39.280Z,76666.28
2022-10-14T16:36:13.040Z,76674.50
2022-10-14T16:38:40.574Z,76670.38
2022-10-14T16:41:10.019Z,76666.28
2022-10-14T16:43:38.246Z,76670.38
2022-10-14T16:46:05.520Z,76678.63
2022-10-14T16:48:32.666Z,76678.63
2022-10-14T16:50:59.886Z,76682.72
2022-10-14T16:53:45.050Z,76674.50
2022-10-14T16:56:31.930Z,76686.84
2022-10-14T16:58:59.361Z,76703.28
2022-10-14T17:01:26.708Z,76703.28
2022-10-14T17:03:54.476Z,76717.66
2022-10-14T17:06:24.092Z,76713.56
2022-10-14T17:08:51.504Z,76695.06
2022-10-14T17:11:18.647Z,76711.50
2022-10-14T17:13:46.189Z,76699.16
2022-10-14T17:16:13.255Z,76707.41
2022-10-14T17:18:41.108Z,76707.41
2022-10-14T17:21:09.096Z,76703.28
2022-10-14T17:23:37.267Z,76707.41
2022-10-14T17:26:05.261Z,76713.56
2022-10-14T17:28:32.768Z,76715.63
2022-10-14T17:31:01.377Z,76721.78
2022-10-14T17:33:28.470Z,76723.84
2022-10-14T17:35:58.839Z,76740.28
2022-10-14T17:38:26.353Z,76760.84
2022-10-14T17:41:04.043Z,76752.63
2022-10-14T17:43:32.798Z,76752.63
2022-10-14T17:46:01.565Z,76767.00
2022-10-14T17:48:29.276Z,76773.19
2022-10-14T17:50:56.457Z,76764.97
2022-10-14T17:53:23.606Z,76787.56
2022-10-14T17:55:54.007Z,76787.56
2022-10-14T17:58:24.084Z,76797.84
2022-10-14T18:00:53.207Z,76795.78
2022-10-14T18:03:20.946Z,76797.84
2022-10-14T18:05:49.049Z,76797.84
2022-10-14T18:08:16.504Z,76797.84
2022-10-14T18:10:43.961Z,76797.84
2022-10-14T18:13:11.032Z,76801.97
2022-10-14T18:15:55.213Z,76822.50
2022-10-14T18:18:23.371Z,76814.28
2022-10-14T18:20:53.969Z,76836.91
2022-10-14T18:23:20.983Z,76851.31
2022-10-14T18:25:48.001Z,76861.56
2022-10-14T18:28:15.593Z,76863.63
2022-10-14T18:30:42.703Z,76849.25
2022-10-14T18:33:09.731Z,76845.13
2022-10-14T18:35:37.350Z,76847.19
2022-10-14T18:38:04.536Z,76845.13
2022-10-14T18:40:31.602Z,76851.31
2022-10-14T18:42:59.734Z,76863.63
2022-10-14T18:45:26.823Z,76867.75
2022-10-14T18:47:54.086Z,76871.84
2022-10-14T18:50:21.205Z,76859.53
2022-10-14T18:52:48.404Z,76882.13
2022-10-14T18:55:15.485Z,76867.75
2022-10-14T18:57:42.532Z,76871.84
2022-10-14T19:00:13.493Z,76867.75
2022-10-14T19:02:42.480Z,76859.53
2022-10-14T19:05:10.751Z,76855.41
2022-10-14T19:07:38.789Z,76878.03
2022-10-14T19:10:09.701Z,76867.75
2022-10-14T19:12:42.943Z,76884.19
2022-10-14T19:15:10.520Z,76884.19
2022-10-14T19:17:38.418Z,76888.31
2022-10-14T19:20:08.346Z,76882.13
2022-10-14T19:22:37.595Z,76919.16
2022-10-14T19:25:04.897Z,76917.09
2022-10-14T19:27:32.102Z,76921.19
2022-10-14T19:29:59.103Z,76896.53
2022-10-14T19:32:26.263Z,76912.97
2022-10-14T19:34:53.627Z,76910.91
2022-10-14T19:37:21.239Z,76912.97
2022-10-14T19:39:48.525Z,76908.88
2022-10-14T19:42:15.823Z,76919.16
2022-10-14T19:44:42.865Z,76923.25
2022-10-14T19:47:10.569Z,76958.19
2022-10-14T19:49:37.796Z,76949.97
2022-10-14T19:52:05.298Z,76949.97
2022-10-14T19:54:34.274Z,76949.97
2022-10-14T19:57:01.551Z,76974.66
2022-10-14T19:59:28.828Z,76962.31
2022-10-14T20:01:56.140Z,76978.75
2022-10-14T20:04:25.239Z,76978.75
2022-10-14T20:06:54.432Z,76991.09
2022-10-14T20:09:22.240Z,77011.66
2022-10-14T20:11:53.145Z,77026.03
2022-10-14T20:14:20.183Z,77019.88
2022-10-14T20:16:53.558Z,77036.34
2022-10-14T20:19:23.089Z,77048.66
2022-10-14T20:21:50.120Z,77036.34
2022-10-14T20:24:17.305Z,77040.44
2022-10-14T20:26:44.413Z,77026.03
2022-10-14T20:29:11.521Z,77040.44
2022-10-14T20:31:38.530Z,77032.22
2022-10-14T20:34:11.151Z,77028.09
2022-10-14T20:36:39.296Z,77019.88
2022-10-14T20:39:06.688Z,77028.09
2022-10-14T20:41:33.910Z,77034.28
2022-10-14T20:44:00.956Z,77044.56
2022-10-14T20:46:30.244Z,77052.78
2022-10-14T20:48:57.554Z,77048.66
2022-10-14T20:51:24.693Z,77075.38
2022-10-14T20:54:00.435Z,77081.56
2022-10-14T20:56:31.280Z,77114.47
2022-10-14T20:58:58.830Z,77102.13
2022-10-14T21:01:26.014Z,77104.19
2022-10-14T21:03:54.902Z,77130.91
2022-10-14T21:06:23.109Z,77130.91
2022-10-14T21:08:50.642Z,77153.53
2022-10-14T21:11:18.614Z,77167.91
2022-10-14T21:13:46.276Z,77174.09
2022-10-14T21:16:17.105Z,77180.25
2022-10-14T21:18:48.084Z,77198.75
2022-10-14T21:21:17.149Z,77227.53
2022-10-14T21:23:44.503Z,77237.81
2022-10-14T21:26:11.543Z,77254.25
2022-10-14T21:28:38.955Z,77250.16
2022-10-14T21:31:06.564Z,77270.72
2022-10-14T21:33:34.728Z,77278.94
2022-10-14T21:36:05.865Z,77287.16
2022-10-14T21:38:32.893Z,77283.06
2022-10-14T21:41:00.972Z,77283.06
2022-10-14T21:43:28.491Z,77307.72
2022-10-14T21:45:55.645Z,77299.50
2022-10-14T21:48:22.838Z,77301.56
2022-10-14T21:50:49.865Z,77311.84
2022-10-14T21:53:16.930Z,77328.28
2022-10-14T21:55:44.905Z,77336.50
2022-10-14T21:58:11.952Z,77340.63
2022-10-14T22:00:39.226Z,77352.97
2022-10-14T22:03:06.465Z,77359.13
2022-10-14T22:05:35.282Z,77369.41
2022-10-14T22:08:02.371Z,77377.63
2022-10-14T22:10:43.631Z,77373.53
2022-10-14T22:13:10.669Z,77379.69
2022-10-14T22:15:44.326Z,77379.69
2022-10-14T22:18:11.457Z,77389.97
2022-10-14T22:20:38.484Z,77387.91
2022-10-14T22:23:05.640Z,77406.41
2022-10-14T22:25:33.636Z,77410.53
2022-10-14T22:28:01.076Z,77416.69
2022-10-14T22:30:28.293Z,77422.88
2022-10-14T22:32:55.368Z,77424.94
2022-10-14T22:35:22.887Z,77418.75
2022-10-14T22:37:50.830Z,77422.88
2022-10-14T22:40:18.238Z,77439.31
2022-10-14T22:42:49.067Z,77445.50
2022-10-14T22:45:18.417Z,77451.66
2022-10-14T22:47:45.472Z,77457.81
2022-10-14T22:50:12.626Z,77451.66
2022-10-14T22:52:39.653Z,77449.59
2022-10-14T22:55:07.194Z,77459.88
2022-10-14T22:57:34.534Z,77468.09
2022-10-14T23:00:01.896Z,77459.88
2022-10-14T23:02:29.139Z,77466.06
2022-10-14T23:04:56.358Z,77470.16
2022-10-14T23:07:23.903Z,77486.59
2022-10-14T23:09:51.228Z,77492.78
2022-10-14T23:12:18.636Z,77496.91
2022-10-14T23:14:45.707Z,77505.13
2022-10-14T23:17:12.774Z,77509.22
2022-10-14T23:19:39.957Z,77503.06
2022-10-14T23:22:09.415Z,77507.16
2022-10-14T23:24:36.663Z,77511.28
2022-10-14T23:27:03.970Z,77513.34
2022-10-14T23:29:32.601Z,77525.69
2022-10-14T23:31:59.663Z,77533.91
2022-10-14T23:34:26.863Z,77533.91
2022-10-14T23:39:26.138Z,77542.13
2022-10-14T23:41:54.263Z,77546.25
2022-10-14T23:44:21.481Z,77556.53
2022-10-14T23:46:50.271Z,77558.56
2022-10-14T23:49:32.045Z,77550.34
2022-10-14T23:52:01.635Z,77560.63
2022-10-14T23:54:28.758Z,77560.63
2022-10-14T23:56:56.287Z,77556.53
2022-10-14T23:59:23.819Z,77575.03
